Aérodrome :
LOGIN :

S'inscrire | Disclaimer

   EN    FR    IT 

 










Légende :    VFR   VFR Marginal   IFR   IFR Intensif   IFR Très Intensif
Visi : 
Plafond : 
>= 8 km
>= 3000ft
5 à 8 km
1000 à 3000 ft
1500m à 5 km
500 à 1000 ft
800 à 1500m
200 à 500 ft
< 800m
< 200 ft
Symboles :   Orages  Brouillard  Fortes neiges  Fortes précipitations  Vent > 20 kt
SIGMETs :   Divers  Orages  Givrage  Turbulence  Onde Orograph.  Cendres Volcan.







- Altitude de l'aérodrome : 17 ft
- Code IATA : GRQ


EHGG - Groningen Eelde

DERNIER METAR :
  • 272355Z AUTO 19005KT 9999 FEW022 SCT026 BKN037 13/12 Q1006 NOSIG

METARs EXPIRÉS :
  • 272325Z AUTO 18005KT 9999 FEW029 12/12 Q1006 NOSIG
  • 272255Z AUTO 17004KT 9999 NSC 12/11 Q1006 NOSIG
  • 272225Z AUTO 18003KT 9999 NSC 13/12 Q1006 NOSIG
  • 272155Z AUTO 18003KT 9999 NSC 13/13 Q1006 NOSIG

TAF TAF EHGG
Valide du 28 à 00h jusqu'au 29 à 06h UTC


272311Z 2800/2906 20006KT 9999 SCT025
PROB40
TEMPO 2800/2806 22015G25KT 4000 SHRA SCT015CB BKN020
BECMG 2806/2809 24015G27KT
PROB40
TEMPO 2806/2818 6000 -SHRA FEW020TCU SCT030
BECMG 2817/2820 21008KT
BECMG 2900/2903 18012KT 6000 RA BKN012
Pas de NOTAMs connus pour ce terrain.



MET'MAP, la Météo Aéronautique d'un coup d'oeil ! - Copyright ORBIFLY Décembre 2007 - Disclaimer

ORBIFLY MET'MAP TEAM :

Programmation & Développement : Alexandra Zaïnal
Conception & Développement : Baudouin d'Aumeries
Co-Programmation & Développement : Marc-Olivier Méhu
Soutien technique & logistique : Manuel Goepfert

Contact : metmap@orbifly.com




SOURCES & CREDITS :

   NOAA